Time;durP1;ratioP1;P1;durP2;ratioP2;P2;SDS_P1;SDS_P2;PMS_P1;PMS_P2;Temp;Humidity;BMP_temperature;BMP_pressure;BME280_temperature;BME280_humidity;BME280_pressure;Samples;Min_cycle;Max_cycle;Signal;HPM_P1;HPM_P2
2021/06/09 00:00:37;;;;;;;9.50;8.73;;;22.90;99.90;;;;;;5034282;28;20442;-70
2021/06/09 00:03:03;;;;;;;8.27;7.67;;;22.90;99.90;;;;;;5033372;28;20482;-71
2021/06/09 00:05:29;;;;;;;9.13;8.38;;;22.90;99.90;;;;;;5034225;28;20446;-70
2021/06/09 00:07:55;;;;;;;8.37;7.77;;;22.90;99.90;;;;;;5032980;28;20191;-70
2021/06/09 00:10:22;;;;;;;8.97;8.17;;;22.90;99.90;;;;;;5027956;28;20978;-70
2021/06/09 00:12:49;;;;;;;9.00;8.27;;;22.90;99.90;;;;;;5033366;28;21211;-70
2021/06/09 00:15:17;;;;;;;7.93;7.27;;;22.90;99.90;;;;;;5033776;28;20478;-70
2021/06/09 00:17:43;;;;;;;8.30;7.70;;;22.90;99.90;;;;;;5033361;28;20458;-69
2021/06/09 00:20:13;;;;;;;8.50;7.80;;;22.80;99.90;;;;;;5032695;28;20454;-70
2021/06/09 00:22:39;;;;;;;8.30;7.47;;;22.80;99.90;;;;;;5032606;28;20478;-70
2021/06/09 00:25:14;;;;;;;7.90;7.30;;;22.80;99.90;;;;;;5032528;28;20552;-69
2021/06/09 00:27:41;;;;;;;8.87;8.17;;;22.80;99.90;;;;;;5033400;28;20460;-70
2021/06/09 00:30:11;;;;;;;8.07;7.37;;;22.80;99.90;;;;;;5033709;28;20457;-69
2021/06/09 00:32:37;;;;;;;8.00;7.40;;;22.80;99.90;;;;;;5032879;28;20955;-70
2021/06/09 00:35:05;;;;;;;9.37;8.60;;;22.70;99.90;;;;;;5033688;28;20442;-70
2021/06/09 00:37:31;;;;;;;9.07;8.37;;;22.70;99.90;;;;;;5033337;28;20454;-70
2021/06/09 00:39:57;;;;;;;8.43;7.75;;;22.70;99.90;;;;;;5032817;28;20434;-70
2021/06/09 00:42:23;;;;;;;8.80;8.10;;;22.70;99.90;;;;;;5033034;28;20620;-70
2021/06/09 00:44:51;;;;;;;7.43;6.90;;;22.70;99.90;;;;;;5033626;28;20978;-70
2021/06/09 00:47:22;;;;;;;8.67;8.07;;;22.70;99.90;;;;;;5033169;28;20504;-70
2021/06/09 00:49:49;;;;;;;10.07;9.27;;;22.70;99.90;;;;;;5032952;28;20438;-70
2021/06/09 00:52:15;;;;;;;7.73;7.13;;;22.70;99.90;;;;;;5032577;28;20528;-70
2021/06/09 00:54:42;;;;;;;9.33;8.53;;;22.70;99.90;;;;;;5033440;28;21099;-70
2021/06/09 00:57:09;;;;;;;8.33;7.67;;;22.70;99.90;;;;;;5032820;28;20445;-70
2021/06/09 00:59:36;;;;;;;8.30;7.60;;;22.60;99.90;;;;;;5033668;28;20450;-70
2021/06/09 01:02:03;;;;;;;8.68;8.00;;;22.60;99.90;;;;;;5033700;28;20457;-71
2021/06/09 01:04:31;;;;;;;8.32;7.63;;;22.60;99.90;;;;;;5032779;28;20216;-71
2021/06/09 01:07:01;;;;;;;8.60;7.90;;;22.60;99.90;;;;;;5032818;28;20203;-70
2021/06/09 01:09:27;;;;;;;9.23;8.43;;;22.60;99.90;;;;;;5031748;28;20640;-71
2021/06/09 01:11:54;;;;;;;8.60;7.90;;;22.60;99.90;;;;;;5033041;28;20207;-71
2021/06/09 01:14:21;;;;;;;8.53;7.97;;;22.60;99.90;;;;;;5032519;28;20203;-70
2021/06/09 01:16:48;;;;;;;8.38;7.60;;;22.60;99.90;;;;;;5032890;28;20449;-70
2021/06/09 01:19:15;;;;;;;8.13;7.53;;;22.60;99.90;;;;;;5032296;28;20202;-71
2021/06/09 01:21:42;;;;;;;8.37;7.67;;;22.60;99.90;;;;;;5020121;28;20805;-70
2021/06/09 01:24:09;;;;;;;8.97;8.17;;;22.60;99.90;;;;;;5027501;28;20509;-70
2021/06/09 01:26:35;;;;;;;8.20;7.60;;;22.60;99.90;;;;;;5026061;28;20481;-70
2021/06/09 01:29:02;;;;;;;9.50;8.80;;;22.60;99.90;;;;;;5032502;28;20446;-71
2021/06/09 01:31:29;;;;;;;8.05;7.45;;;22.60;99.90;;;;;;5032379;28;20461;-72
2021/06/09 01:33:55;;;;;;;8.53;7.93;;;22.50;99.90;;;;;;5032379;28;20679;-72
2021/06/09 01:36:22;;;;;;;9.17;8.37;;;22.50;99.90;;;;;;5032533;28;20458;-71
2021/06/09 01:38:51;;;;;;;6.95;6.45;;;22.50;99.90;;;;;;5032224;28;20496;-71
2021/06/09 01:41:22;;;;;;;8.38;7.75;;;22.50;99.90;;;;;;5032203;28;20204;-71
2021/06/09 01:43:49;;;;;;;8.43;7.82;;;22.40;99.90;;;;;;5032865;28;20208;-71
2021/06/09 01:46:16;;;;;;;8.65;7.95;;;22.50;99.90;;;;;;5031340;28;20203;-71
2021/06/09 01:48:42;;;;;;;9.82;9.13;;;22.50;99.90;;;;;;5032408;28;20218;-70
2021/06/09 01:51:09;;;;;;;9.13;8.43;;;22.40;99.90;;;;;;5031695;28;20204;-70
2021/06/09 01:53:35;;;;;;;8.75;8.05;;;22.50;99.90;;;;;;5028797;28;20647;-70
2021/06/09 01:56:03;;;;;;;8.40;7.80;;;22.50;99.90;;;;;;5027548;28;20216;-70
2021/06/09 01:58:29;;;;;;;7.80;7.20;;;22.40;99.90;;;;;;5012818;28;20208;-71
2021/06/09 02:00:56;;;;;;;8.90;8.23;;;22.40;99.90;;;;;;5012961;28;20212;-70
2021/06/09 02:03:22;;;;;;;8.80;8.10;;;22.40;99.90;;;;;;5030577;28;20223;-70
2021/06/09 02:05:48;;;;;;;7.88;7.28;;;22.40;99.90;;;;;;5031675;28;20628;-70
2021/06/09 02:08:15;;;;;;;10.10;9.15;;;22.40;99.90;;;;;;5031376;28;20192;-70
2021/06/09 02:10:43;;;;;;;8.90;8.10;;;22.40;99.90;;;;;;5031503;28;20253;-70
2021/06/09 02:13:12;;;;;;;8.27;7.63;;;22.40;99.90;;;;;;5031701;28;20283;-70
2021/06/09 02:15:40;;;;;;;8.02;7.32;;;22.40;99.90;;;;;;5013212;28;20201;-70
2021/06/09 02:18:11;;;;;;;9.70;8.90;;;22.30;99.90;;;;;;5013973;28;20201;-70
2021/06/09 02:20:40;;;;;;;8.80;8.17;;;22.40;99.90;;;;;;5031270;28;20719;-70
2021/06/09 02:23:09;;;;;;;8.95;8.25;;;22.30;99.90;;;;;;5031427;28;20485;-70
2021/06/09 02:25:36;;;;;;;9.38;8.65;;;22.30;99.90;;;;;;5031832;28;20203;-69
2021/06/09 02:28:04;;;;;;;9.10;8.30;;;22.30;99.90;;;;;;5031235;28;20226;-69
2021/06/09 02:30:32;;;;;;;9.10;8.40;;;22.30;99.90;;;;;;5032112;28;20203;-70
2021/06/09 02:32:58;;;;;;;9.88;9.00;;;22.30;99.90;;;;;;5031091;28;20237;-69
2021/06/09 02:35:24;;;;;;;9.18;8.38;;;22.30;99.90;;;;;;5031496;28;20242;-69
2021/06/09 02:37:52;;;;;;;9.67;8.80;;;22.30;99.90;;;;;;5031928;28;20205;-69
2021/06/09 02:40:19;;;;;;;8.77;8.07;;;22.30;99.90;;;;;;5025926;28;20474;-70
2021/06/09 02:42:46;;;;;;;9.90;9.10;;;22.30;99.90;;;;;;5030898;28;20729;-69
2021/06/09 02:45:16;;;;;;;9.40;8.55;;;22.30;99.90;;;;;;5031567;28;20219;-69
2021/06/09 02:47:47;;;;;;;10.13;9.13;;;22.20;99.90;;;;;;5032239;28;20587;-69
2021/06/09 02:50:15;;;;;;;9.30;8.50;;;22.20;99.90;;;;;;5031684;28;20191;-69
2021/06/09 02:52:49;;;;;;;9.45;8.75;;;22.20;99.90;;;;;;5031215;28;20196;-69
2021/06/09 02:55:25;;;;;;;9.93;9.13;;;22.20;99.90;;;;;;5031378;28;20819;-70
2021/06/09 02:58:01;;;;;;;9.25;8.55;;;22.20;99.90;;;;;;5030641;28;20199;-69
2021/06/09 03:00:34;;;;;;;8.40;7.70;;;22.20;99.90;;;;;;5031661;28;20543;-70
2021/06/09 03:03:09;;;;;;;10.27;9.25;;;22.10;99.90;;;;;;5023479;28;20213;-69
2021/06/09 03:05:41;;;;;;;9.70;8.90;;;22.20;99.90;;;;;;5030250;28;20207;-70
2021/06/09 03:08:16;;;;;;;9.95;9.18;;;22.10;99.90;;;;;;5030437;28;20199;-69
2021/06/09 03:10:49;;;;;;;9.23;8.52;;;22.10;99.90;;;;;;5030451;28;20199;-69
2021/06/09 03:13:27;;;;;;;9.68;8.88;;;22.10;99.90;;;;;;5021572;28;20192;-69
2021/06/09 03:15:59;;;;;;;9.55;8.75;;;22.10;99.90;;;;;;5012157;28;20262;-69
2021/06/09 03:18:33;;;;;;;10.93;9.82;;;22.10;99.90;;;;;;5019423;28;20204;-69
2021/06/09 03:21:02;;;;;;;8.82;8.07;;;22.10;99.90;;;;;;5030667;28;20643;-69
2021/06/09 03:23:45;;;;;;;9.82;9.13;;;22.10;99.90;;;;;;5029081;28;20230;-69
2021/06/09 03:26:15;;;;;;;10.10;9.20;;;22.00;99.90;;;;;;5011719;28;20211;-69
2021/06/09 03:28:50;;;;;;;10.60;9.75;;;22.10;99.90;;;;;;5024116;28;20196;-69
2021/06/09 03:31:22;;;;;;;8.55;7.95;;;22.00;99.90;;;;;;5030859;28;20203;-69
2021/06/09 03:33:52;;;;;;;9.00;8.20;;;22.10;99.90;;;;;;5010867;28;20258;-69
2021/06/09 03:36:22;;;;;;;8.93;8.23;;;22.00;99.90;;;;;;5026909;28;20203;-69
2021/06/09 03:38:55;;;;;;;9.25;8.55;;;22.00;99.90;;;;;;5030915;28;20187;-69
2021/06/09 03:41:23;;;;;;;9.13;8.43;;;22.00;99.90;;;;;;5030763;28;20203;-69
2021/06/09 03:43:53;;;;;;;9.68;8.98;;;22.00;99.90;;;;;;5030710;28;20215;-69
2021/06/09 03:46:23;;;;;;;9.80;9.00;;;22.00;99.90;;;;;;5030661;28;20200;-69
2021/06/09 03:48:53;;;;;;;9.02;8.27;;;22.00;99.90;;;;;;5031077;28;20200;-69
2021/06/09 03:51:23;;;;;;;10.68;9.77;;;22.00;99.90;;;;;;5030630;28;20238;-69
2021/06/09 03:53:50;;;;;;;9.70;8.90;;;21.90;99.90;;;;;;5029617;28;20196;-69
2021/06/09 03:56:18;;;;;;;9.45;8.65;;;22.00;99.90;;;;;;5027981;28;20235;-69
2021/06/09 03:58:44;;;;;;;9.82;8.93;;;22.00;99.90;;;;;;5034687;28;20196;-69
2021/06/09 04:01:12;;;;;;;9.45;8.65;;;21.90;99.90;;;;;;5033801;28;20200;-69
2021/06/09 04:03:40;;;;;;;8.85;8.02;;;22.00;99.90;;;;;;5034568;28;20219;-69
2021/06/09 04:06:13;;;;;;;10.00;9.20;;;21.90;99.90;;;;;;5033986;28;20249;-69
2021/06/09 04:08:41;;;;;;;10.60;9.70;;;21.90;99.90;;;;;;5033120;28;20200;-69
2021/06/09 04:11:09;;;;;;;10.65;9.75;;;21.90;99.90;;;;;;5033720;28;20203;-69
2021/06/09 04:13:36;;;;;;;9.82;9.02;;;21.90;99.90;;;;;;5034081;28;20195;-71
2021/06/09 04:16:04;;;;;;;10.65;9.75;;;21.90;99.90;;;;;;5033768;28;20199;-71
2021/06/09 04:18:32;;;;;;;10.63;9.73;;;21.90;99.90;;;;;;5033823;28;20624;-70
2021/06/09 04:20:59;;;;;;;7.68;7.07;;;21.80;99.90;;;;;;5032886;28;20201;-70
2021/06/09 04:23:27;;;;;;;8.68;7.97;;;21.90;99.90;;;;;;5033451;28;20667;-70
2021/06/09 04:25:53;;;;;;;9.70;8.80;;;21.80;99.90;;;;;;5033948;28;20203;-70
2021/06/09 04:28:20;;;;;;;10.13;9.32;;;21.80;99.90;;;;;;5033543;28;20199;-70
2021/06/09 04:30:48;;;;;;;10.90;9.90;;;21.80;99.90;;;;;;5032940;28;20196;-70
2021/06/09 04:33:14;;;;;;;9.68;8.88;;;21.80;99.90;;;;;;5032733;28;20882;-71
2021/06/09 04:35:42;;;;;;;9.00;8.25;;;21.80;99.90;;;;;;5031734;28;20191;-70
2021/06/09 04:38:12;;;;;;;10.25;9.43;;;21.80;99.90;;;;;;5021386;28;20203;-69
2021/06/09 04:40:40;;;;;;;10.18;9.40;;;21.80;99.90;;;;;;5033908;28;20432;-69
2021/06/09 04:43:07;;;;;;;11.02;10.13;;;21.80;99.90;;;;;;5033625;28;20223;-70
2021/06/09 04:45:33;;;;;;;10.75;9.82;;;21.80;99.90;;;;;;5032997;28;20227;-70
2021/06/09 04:48:00;;;;;;;10.32;9.50;;;21.80;99.90;;;;;;5032872;28;20207;-70
2021/06/09 04:50:27;;;;;;;9.32;8.52;;;21.80;99.90;;;;;;5033391;28;20213;-70
2021/06/09 04:53:09;;;;;;;11.10;9.00;;;21.80;99.90;;;;;;5033677;28;20195;-70
2021/06/09 04:55:36;;;;;;;12.27;11.07;;;21.90;99.90;;;;;;5033197;28;20195;-71
2021/06/09 04:58:04;;;;;;;12.82;11.73;;;21.80;99.90;;;;;;5032955;28;20695;-71
2021/06/09 05:00:30;;;;;;;13.85;12.55;;;21.90;99.90;;;;;;5019685;28;20211;-71
2021/06/09 05:02:56;;;;;;;11.65;10.40;;;21.90;99.90;;;;;;5013701;28;20227;-71
2021/06/09 05:05:22;;;;;;;12.90;11.68;;;21.90;99.90;;;;;;5020305;28;20199;-70
2021/06/09 05:07:49;;;;;;;12.40;11.30;;;21.90;99.90;;;;;;5032659;28;20199;-71
2021/06/09 05:10:15;;;;;;;12.00;10.90;;;21.90;99.90;;;;;;5027167;28;20250;-71
2021/06/09 05:12:45;;;;;;;12.70;11.50;;;21.90;99.90;;;;;;5032862;28;20655;-71
2021/06/09 05:15:13;;;;;;;12.20;11.13;;;21.90;99.90;;;;;;5031756;28;20211;-70
2021/06/09 05:17:43;;;;;;;13.07;11.95;;;21.90;99.90;;;;;;5032405;28;20265;-70
2021/06/09 05:20:12;;;;;;;12.10;11.10;;;21.90;99.90;;;;;;5033210;28;20202;-70
2021/06/09 05:22:41;;;;;;;14.00;12.70;;;21.90;99.90;;;;;;5033034;28;20525;-70
2021/06/09 05:25:09;;;;;;;14.88;13.60;;;21.90;99.90;;;;;;5031672;28;20227;-70
2021/06/09 05:27:37;;;;;;;15.38;14.00;;;21.90;99.90;;;;;;5032169;28;20219;-70
2021/06/09 05:30:05;;;;;;;12.48;11.38;;;22.00;99.90;;;;;;5016313;28;20204;-70
2021/06/09 05:32:35;;;;;;;10.48;9.52;;;22.00;99.90;;;;;;5016299;28;20743;-70
2021/06/09 05:35:02;;;;;;;9.95;9.10;;;22.10;99.90;;;;;;5031944;28;20195;-70
2021/06/09 05:37:29;;;;;;;10.48;9.57;;;22.20;99.90;;;;;;5032249;28;20200;-70
2021/06/09 05:39:58;;;;;;;10.57;9.73;;;22.30;99.90;;;;;;5032423;28;20276;-70
2021/06/09 05:42:25;;;;;;;10.60;9.70;;;22.40;99.90;;;;;;5032102;28;20616;-70
2021/06/09 05:44:54;;;;;;;10.25;9.43;;;22.50;99.90;;;;;;5031487;28;20488;-71
2021/06/09 05:47:21;;;;;;;11.60;10.60;;;22.60;99.90;;;;;;5032056;28;20290;-70
2021/06/09 05:49:48;;;;;;;10.17;9.27;;;22.60;99.90;;;;;;5032276;28;20195;-71
2021/06/09 05:52:15;;;;;;;9.93;9.02;;;22.70;99.90;;;;;;5031318;28;20472;-70
2021/06/09 05:54:43;;;;;;;10.23;9.32;;;22.80;99.90;;;;;;5031950;28;20202;-70
2021/06/09 05:57:11;;;;;;;11.33;10.33;;;22.90;99.90;;;;;;5031783;28;20652;-70
2021/06/09 05:59:39;;;;;;;9.33;8.53;;;23.00;99.90;;;;;;5031506;28;20516;-70
2021/06/09 06:02:06;;;;;;;11.00;10.00;;;23.00;99.90;;;;;;5032040;28;20776;-70
2021/06/09 06:04:34;;;;;;;10.33;9.47;;;23.10;99.90;;;;;;5031346;28;20527;-70
2021/06/09 06:07:02;;;;;;;8.97;8.17;;;23.20;99.90;;;;;;5031686;28;20854;-70
2021/06/09 06:09:28;;;;;;;10.90;10.00;;;23.20;99.90;;;;;;5031311;28;20450;-70
2021/06/09 06:11:55;;;;;;;11.10;10.03;;;23.30;99.90;;;;;;5031413;28;20438;-71
2021/06/09 06:14:24;;;;;;;9.60;8.80;;;23.40;99.90;;;;;;5032043;28;20445;-71
2021/06/09 06:16:52;;;;;;;9.60;8.80;;;23.40;99.90;;;;;;5030734;28;20477;-70
2021/06/09 06:19:19;;;;;;;10.60;8.60;;;23.50;99.90;;;;;;5027848;28;20442;-71
2021/06/09 06:21:46;;;;;;;10.67;9.77;;;23.60;99.90;;;;;;5020190;28;20458;-71
2021/06/09 06:24:16;;;;;;;10.30;9.40;;;23.60;99.90;;;;;;5031279;28;20484;-71
2021/06/09 06:26:44;;;;;;;10.60;9.60;;;23.70;99.90;;;;;;5024378;28;20835;-74
2021/06/09 06:29:11;;;;;;;12.07;10.87;;;23.80;99.90;;;;;;5023616;28;20515;-71
2021/06/09 06:31:38;;;;;;;9.70;8.80;;;23.80;99.90;;;;;;5021069;28;20462;-69
2021/06/09 06:34:04;;;;;;;11.37;10.27;;;23.90;99.90;;;;;;5029654;28;20822;-70
2021/06/09 06:36:31;;;;;;;10.00;9.10;;;24.00;99.90;;;;;;5018700;28;20945;-70
2021/06/09 06:38:58;;;;;;;9.10;8.40;;;24.00;99.90;;;;;;5027481;28;20439;-70
2021/06/09 06:41:28;;;;;;;9.37;8.57;;;24.10;99.90;;;;;;5029955;28;20446;-70
2021/06/09 06:43:56;;;;;;;10.33;9.43;;;24.20;99.90;;;;;;5030878;28;20481;-71
2021/06/09 06:46:23;;;;;;;10.13;9.23;;;24.20;99.90;;;;;;5016418;28;20446;-70
2021/06/09 06:48:52;;;;;;;9.27;8.47;;;24.30;99.90;;;;;;5031082;28;20990;-69
2021/06/09 06:51:19;;;;;;;10.10;9.23;;;24.40;99.90;;;;;;5030795;28;20462;-69
2021/06/09 06:53:48;;;;;;;10.47;9.57;;;24.50;99.90;;;;;;5030969;28;20732;-69
2021/06/09 06:56:15;;;;;;;9.87;9.03;;;24.50;99.90;;;;;;5030966;28;20442;-69
2021/06/09 06:58:48;;;;;;;8.87;8.17;;;24.60;99.90;;;;;;5030602;28;20465;-69
2021/06/09 07:01:15;;;;;;;9.90;9.10;;;24.60;99.90;;;;;;5030586;28;20476;-70
2021/06/09 07:03:43;;;;;;;9.27;8.47;;;24.80;99.90;;;;;;5030637;28;20489;-69
2021/06/09 07:06:10;;;;;;;9.40;8.60;;;24.80;99.90;;;;;;5030972;28;20452;-69
2021/06/09 07:08:37;;;;;;;9.00;8.27;;;24.90;99.90;;;;;;5028085;28;20462;-69
2021/06/09 07:11:04;;;;;;;9.80;9.00;;;25.00;99.90;;;;;;5030467;28;21108;-69
2021/06/09 07:13:31;;;;;;;10.27;9.27;;;25.00;99.90;;;;;;5030692;28;20457;-69
2021/06/09 07:16:01;;;;;;;10.37;9.50;;;25.10;99.90;;;;;;5030449;28;20481;-69
2021/06/09 07:18:29;;;;;;;10.70;9.70;;;25.10;99.90;;;;;;5030749;28;20539;-69
2021/06/09 07:20:55;;;;;;;10.13;9.23;;;25.20;99.90;;;;;;5030648;28;20455;-69
2021/06/09 07:23:22;;;;;;;9.87;9.07;;;25.30;99.90;;;;;;5029948;28;20476;-70
2021/06/09 07:25:50;;;;;;;11.13;10.07;;;25.30;99.90;;;;;;5030175;28;20523;-69
2021/06/09 07:28:18;;;;;;;9.57;8.67;;;25.40;99.90;;;;;;5030530;28;20456;-70
2021/06/09 07:30:46;;;;;;;9.63;8.73;;;25.40;99.90;;;;;;5034177;28;20907;-69
2021/06/09 07:33:14;;;;;;;9.03;8.33;;;25.50;99.90;;;;;;5034176;28;20510;-70
2021/06/09 07:35:41;;;;;;;11.63;10.70;;;25.60;99.90;;;;;;5033843;28;20504;-70
2021/06/09 07:38:13;;;;;;;11.07;10.10;;;25.70;99.90;;;;;;5034702;28;20526;-69
2021/06/09 07:40:42;;;;;;;9.03;8.33;;;25.70;99.90;;;;;;5033925;28;21061;-70
2021/06/09 07:43:11;;;;;;;10.57;9.77;;;25.80;99.90;;;;;;5033581;28;20965;-70
2021/06/09 07:45:39;;;;;;;22.47;19.87;;;25.90;99.90;;;;;;5034432;28;20537;-69
2021/06/09 07:48:07;;;;;;;15.90;14.60;;;25.90;99.90;;;;;;5029948;28;20985;-69
2021/06/09 07:50:40;;;;;;;21.87;15.17;;;26.00;99.90;;;;;;5033838;28;21026;-69
2021/06/09 07:53:10;;;;;;;15.20;13.83;;;26.00;99.90;;;;;;5029599;28;20439;-70
2021/06/09 07:55:37;;;;;;;13.00;11.80;;;26.10;99.90;;;;;;5020615;28;20454;-70
2021/06/09 07:58:05;;;;;;;12.43;11.43;;;26.20;99.90;;;;;;5033960;28;20454;-70
2021/06/09 08:00:32;;;;;;;11.07;9.83;;;26.20;99.90;;;;;;5034895;28;20446;-69
2021/06/09 08:02:59;;;;;;;12.40;11.30;;;26.40;99.90;;;;;;5034215;28;20462;-70
2021/06/09 08:05:26;;;;;;;12.23;11.03;;;26.40;99.90;;;;;;5034159;28;20450;-70
2021/06/09 08:07:54;;;;;;;10.17;9.33;;;26.40;99.90;;;;;;5033773;28;20442;-69
2021/06/09 08:10:22;;;;;;;12.57;11.27;;;26.40;99.90;;;;;;5034621;28;20460;-69
2021/06/09 08:12:50;;;;;;;10.77;9.87;;;26.40;99.90;;;;;;5034804;28;20442;-70
2021/06/09 08:15:16;;;;;;;11.93;10.83;;;26.30;99.90;;;;;;5033386;28;20486;-69
2021/06/09 08:17:45;;;;;;;11.63;10.53;;;26.30;99.90;;;;;;5028970;28;20446;-70
2021/06/09 08:20:13;;;;;;;10.30;9.30;;;26.30;99.90;;;;;;5033388;28;20629;-70
2021/06/09 08:22:44;;;;;;;9.77;9.00;;;26.40;99.90;;;;;;5028936;28;20465;-69
2021/06/09 08:25:14;;;;;;;9.93;9.00;;;26.40;99.90;;;;;;5033701;28;20557;-69
2021/06/09 08:27:40;;;;;;;10.40;9.67;;;26.50;99.90;;;;;;5025056;28;20463;-70
2021/06/09 08:30:08;;;;;;;12.93;11.77;;;26.50;99.90;;;;;;5019693;28;20457;-70
2021/06/09 08:32:35;;;;;;;11.90;10.90;;;26.40;99.90;;;;;;5033157;28;20471;-69
2021/06/09 08:35:02;;;;;;;11.17;10.17;;;26.40;99.90;;;;;;5033378;28;20446;-69
2021/06/09 08:37:28;;;;;;;11.80;10.70;;;26.30;99.90;;;;;;5033190;28;20500;-69
2021/06/09 08:39:55;;;;;;;9.80;9.00;;;26.30;99.90;;;;;;5027582;28;20466;-70
2021/06/09 08:42:24;;;;;;;10.50;9.60;;;26.40;99.90;;;;;;5032507;28;20465;-70
2021/06/09 08:44:50;;;;;;;9.30;8.40;;;26.40;99.90;;;;;;5033262;28;20478;-70
2021/06/09 08:47:17;;;;;;;10.10;9.10;;;26.50;99.90;;;;;;5032677;28;20454;-70
2021/06/09 08:49:45;;;;;;;10.97;9.97;;;26.60;99.90;;;;;;5033853;28;20774;-69
2021/06/09 08:52:13;;;;;;;11.10;10.20;;;26.60;99.90;;;;;;5032734;28;20981;-70
2021/06/09 08:54:43;;;;;;;11.20;10.30;;;26.70;99.90;;;;;;5033419;28;20445;-69
2021/06/09 08:57:10;;;;;;;10.90;10.00;;;26.70;99.90;;;;;;5033069;28;20463;-69
2021/06/09 08:59:38;;;;;;;9.93;9.03;;;26.70;99.90;;;;;;5033435;28;20446;-70
2021/06/09 09:02:04;;;;;;;8.83;8.13;;;26.70;99.90;;;;;;5033312;28;20453;-69
2021/06/09 09:04:33;;;;;;;17.20;15.70;;;26.70;99.90;;;;;;5033180;28;20482;-70
2021/06/09 09:07:00;;;;;;;13.13;11.83;;;26.70;98.90;;;;;;5034312;28;20461;-69
2021/06/09 09:09:26;;;;;;;9.43;8.73;;;26.80;99.20;;;;;;5034028;28;20442;-69
2021/06/09 09:11:52;;;;;;;11.57;10.30;;;26.80;99.40;;;;;;5032749;28;20446;-68
2021/06/09 09:14:19;;;;;;;10.57;9.57;;;26.80;99.50;;;;;;5016263;28;20463;-69
2021/06/09 09:17:09;;;;;;;10.43;9.53;;;26.90;99.50;;;;;;5026417;28;20458;-70
2021/06/09 09:19:40;;;;;;;8.40;7.70;;;26.90;99.30;;;;;;5025439;28;20458;-69
2021/06/09 09:22:07;;;;;;;8.23;7.53;;;26.90;98.90;;;;;;5031594;28;20466;-69
2021/06/09 09:24:42;;;;;;;8.07;7.37;;;27.00;98.80;;;;;;5028307;28;20474;-70
2021/06/09 09:27:09;;;;;;;8.10;7.30;;;26.90;98.70;;;;;;5031719;28;20461;-71
2021/06/09 09:29:36;;;;;;;9.23;8.27;;;26.90;98.90;;;;;;5029770;28;20482;-70
2021/06/09 09:32:06;;;;;;;9.37;8.67;;;26.80;99.10;;;;;;5030806;28;20462;-69
2021/06/09 09:34:39;;;;;;;8.43;7.73;;;26.70;99.40;;;;;;5032344;28;20477;-70
2021/06/09 09:37:18;;;;;;;8.87;7.97;;;26.60;99.70;;;;;;5031637;28;20549;-68
2021/06/09 09:39:47;;;;;;;9.27;8.50;;;26.50;99.90;;;;;;5027448;28;20881;-70
2021/06/09 09:42:18;;;;;;;7.43;6.73;;;26.40;99.90;;;;;;5012447;28;20459;-69
2021/06/09 09:44:45;;;;;;;9.30;8.50;;;26.40;99.90;;;;;;5018799;28;20907;-69
2021/06/09 09:47:15;;;;;;;9.63;8.67;;;26.50;99.90;;;;;;5027329;28;20478;-69
2021/06/09 09:49:42;;;;;;;10.87;9.97;;;26.50;99.90;;;;;;5032606;28;20508;-69
2021/06/09 09:52:09;;;;;;;10.50;9.60;;;26.50;99.90;;;;;;5030796;28;20530;-70
2021/06/09 09:54:37;;;;;;;7.70;7.10;;;26.50;99.90;;;;;;5030926;28;20472;-69
2021/06/09 09:57:06;;;;;;;8.07;7.37;;;26.50;99.90;;;;;;5016434;28;20454;-69
2021/06/09 09:59:33;;;;;;;8.90;8.10;;;26.40;99.90;;;;;;5025058;28;20625;-69
2021/06/09 10:02:02;;;;;;;8.60;7.70;;;26.40;99.90;;;;;;5032257;28;20531;-69
2021/06/09 10:04:31;;;;;;;9.07;8.30;;;26.40;99.90;;;;;;5032991;28;20982;-69
2021/06/09 10:06:59;;;;;;;6.83;6.33;;;26.30;99.90;;;;;;5033068;28;20457;-69
2021/06/09 10:09:27;;;;;;;8.27;7.67;;;26.30;99.90;;;;;;5030653;28;20450;-69
2021/06/09 10:11:55;;;;;;;8.93;8.20;;;26.30;99.90;;;;;;5032717;28;20508;-70
2021/06/09 10:14:24;;;;;;;6.77;6.27;;;26.40;99.90;;;;;;5032447;28;20446;-70
2021/06/09 10:16:57;;;;;;;7.10;6.50;;;26.40;99.90;;;;;;5032515;28;20466;-69
2021/06/09 10:19:27;;;;;;;7.50;7.00;;;26.40;99.90;;;;;;5032671;28;20438;-70
2021/06/09 10:21:56;;;;;;;10.00;5.80;;;26.50;99.90;;;;;;5028414;28;20507;-69
2021/06/09 10:24:26;;;;;;;7.70;7.00;;;26.50;99.90;;;;;;5032377;28;20486;-71
2021/06/09 10:26:55;;;;;;;8.37;7.57;;;26.60;99.90;;;;;;5029632;28;20919;-71
2021/06/09 10:29:23;;;;;;;8.70;8.00;;;26.60;99.90;;;;;;5017638;28;20534;-70
2021/06/09 10:31:52;;;;;;;8.43;7.70;;;26.60;99.60;;;;;;5027721;28;20506;-70
2021/06/09 10:34:19;;;;;;;7.80;7.20;;;26.60;99.30;;;;;;5012505;28;20471;-69
2021/06/09 10:36:47;;;;;;;8.63;7.83;;;26.70;99.10;;;;;;5024904;28;20473;-71
2021/06/09 10:39:15;;;;;;;5.97;5.53;;;26.70;99.20;;;;;;5032464;28;21002;-70
2021/06/09 10:41:44;;;;;;;7.73;7.13;;;26.70;99.20;;;;;;5029524;28;20452;-71
2021/06/09 10:44:12;;;;;;;7.00;6.30;;;26.70;99.30;;;;;;5031391;28;20552;-70
2021/06/09 10:46:43;;;;;;;7.10;6.60;;;26.70;99.60;;;;;;5031684;28;20446;-70
2021/06/09 10:49:14;;;;;;;7.40;6.80;;;26.70;99.60;;;;;;5032312;28;20469;-71
2021/06/09 10:51:40;;;;;;;8.00;7.40;;;26.60;99.60;;;;;;5031426;28;20461;-71
2021/06/09 10:54:10;;;;;;;7.70;7.10;;;26.60;99.40;;;;;;5031353;28;20447;-69
2021/06/09 10:56:37;;;;;;;7.43;6.83;;;26.60;99.60;;;;;;5030961;28;20468;-69
2021/06/09 10:59:05;;;;;;;7.20;6.60;;;26.50;99.50;;;;;;5027532;28;20457;-70
2021/06/09 11:01:32;;;;;;;8.20;7.40;;;26.50;99.60;;;;;;5030829;28;20440;-69
2021/06/09 11:04:00;;;;;;;9.27;8.37;;;26.50;99.50;;;;;;5030143;28;20480;-69
2021/06/09 11:06:52;;;;;;;7.00;6.40;;;26.50;99.50;;;;;;5016704;28;20500;-70
2021/06/09 11:09:21;;;;;;;7.10;6.50;;;26.50;99.60;;;;;;5014613;28;20460;-70
2021/06/09 11:12:07;;;;;;;7.17;6.67;;;26.60;99.90;;;;;;5026047;28;20442;-70
2021/06/09 11:14:44;;;;;;;7.33;6.73;;;26.60;99.90;;;;;;5026343;28;20451;-71
2021/06/09 11:17:11;;;;;;;7.30;6.80;;;26.60;99.60;;;;;;5025594;28;20452;-70
2021/06/09 11:19:40;;;;;;;7.13;6.53;;;26.60;99.40;;;;;;5031370;28;20775;-70
2021/06/09 11:22:21;;;;;;;6.60;6.10;;;26.60;99.30;;;;;;5029648;28;20454;-70
2021/06/09 11:25:07;;;;;;;7.00;6.37;;;26.60;98.60;;;;;;5030564;28;20524;-69
2021/06/09 11:27:34;;;;;;;6.73;6.23;;;26.60;98.90;;;;;;5017502;28;20463;-70
2021/06/09 11:30:37;;;;;;;7.60;6.90;;;26.60;99.20;;;;;;5020253;28;20458;-70
2021/06/09 11:33:05;;;;;;;6.80;6.20;;;26.60;99.30;;;;;;5020329;28;20480;-70
2021/06/09 11:35:42;;;;;;;6.93;6.43;;;26.60;99.00;;;;;;5028218;28;20457;-70
2021/06/09 11:38:23;;;;;;;6.20;5.70;;;26.60;99.10;;;;;;5015457;28;20450;-70
2021/06/09 11:40:51;;;;;;;6.53;5.93;;;26.60;98.60;;;;;;5018994;28;20454;-69
2021/06/09 11:43:18;;;;;;;5.73;5.23;;;26.70;98.80;;;;;;5027675;28;20478;-70
2021/06/09 11:45:55;;;;;;;7.17;6.50;;;26.60;98.70;;;;;;5024471;28;20443;-70
2021/06/09 11:48:23;;;;;;;7.10;6.40;;;26.60;98.70;;;;;;5026850;28;20533;-70
2021/06/09 11:50:52;;;;;;;6.13;5.70;;;26.60;98.70;;;;;;5020318;28;20458;-69
2021/06/09 11:53:34;;;;;;;5.90;5.40;;;26.70;98.80;;;;;;5013082;28;20465;-69
2021/06/09 11:56:12;;;;;;;6.40;5.90;;;26.60;98.80;;;;;;5030175;28;20453;-70
2021/06/09 11:58:39;;;;;;;7.60;6.90;;;26.60;98.60;;;;;;5029590;28;20434;-70
2021/06/09 12:01:09;;;;;;;6.33;5.83;;;26.70;98.60;;;;;;5030307;28;20780;-70
2021/06/09 12:03:36;;;;;;;6.77;5.20;;;26.70;97.90;;;;;;5010922;28;20832;-71
2021/06/09 12:06:17;;;;;;;6.17;5.70;;;26.70;98.50;;;;;;5018925;28;20465;-71
2021/06/09 12:08:45;;;;;;;6.70;6.20;;;26.60;98.00;;;;;;5012565;28;20485;-70
2021/06/09 12:11:11;;;;;;;5.53;5.13;;;26.70;98.10;;;;;;5016237;28;20458;-71
2021/06/09 12:13:38;;;;;;;6.03;5.63;;;26.70;97.70;;;;;;5021255;28;20718;-71
2021/06/09 12:16:07;;;;;;;6.60;6.10;;;26.70;98.10;;;;;;5031572;28;20449;-70
2021/06/09 12:18:34;;;;;;;6.40;5.77;;;26.70;98.20;;;;;;5033205;28;20450;-69
2021/06/09 12:21:09;;;;;;;7.00;5.83;;;26.70;98.10;;;;;;5033236;28;20462;-69
2021/06/09 12:23:36;;;;;;;7.03;6.43;;;26.70;98.50;;;;;;5032205;28;20941;-70
2021/06/09 12:26:04;;;;;;;9.40;6.97;;;26.70;98.40;;;;;;5025118;28;20455;-70
2021/06/09 12:28:30;;;;;;;6.83;6.33;;;26.70;98.40;;;;;;5030719;28;20823;-69
2021/06/09 12:30:58;;;;;;;6.50;6.00;;;26.70;98.00;;;;;;5033408;28;20520;-69
2021/06/09 12:33:36;;;;;;;6.00;5.50;;;26.60;98.20;;;;;;5030071;28;20478;-70
2021/06/09 12:36:06;;;;;;;5.63;5.23;;;26.60;98.10;;;;;;5019185;28;20470;-69
2021/06/09 12:38:32;;;;;;;6.60;6.00;;;26.60;98.10;;;;;;5019763;28;20445;-70
2021/06/09 12:40:59;;;;;;;6.67;6.17;;;26.60;98.20;;;;;;5027559;28;20447;-70
2021/06/09 12:43:25;;;;;;;6.70;5.97;;;26.60;98.00;;;;;;5014012;28;20455;-70
2021/06/09 12:45:52;;;;;;;5.23;4.83;;;26.60;98.00;;;;;;5027381;28;20469;-71
2021/06/09 12:48:20;;;;;;;5.90;5.50;;;26.60;97.90;;;;;;5032525;28;20457;-71
2021/06/09 12:50:49;;;;;;;5.63;5.23;;;26.60;97.80;;;;;;5033050;28;20574;-70